Aviation Digital Data Service (ADDS)

Output produced by TAFs form (1936 UTC 16 January 2018)
found at http://www.aviationweather.gov/adds/tafs/
 
TAF KRIV 161202Z 1612/1718 VRB04KT 9999 SCT150 BKN200 QNH3012INS 
     BECMG 1619/1620 30009KT 9999 FEW150 BKN200 QNH3009INS 
     BECMG 1703/1704 VRB04KT 9999 FEW150 BKN200 QNH3014INS TX23/1622Z TN04/1614Z